createdAt,value
2018-12-16T00:01:38.246Z,10.80
2018-12-16T00:04:10.352Z,10.70
2018-12-16T00:06:42.301Z,11.60
2018-12-16T00:09:12.440Z,11.23
2018-12-16T00:11:42.573Z,10.33
2018-12-16T00:14:12.793Z,10.53
2018-12-16T00:16:43.073Z,11.57
2018-12-16T00:19:13.127Z,9.60
2018-12-16T00:21:43.173Z,10.33
2018-12-16T00:24:13.173Z,9.93
2018-12-16T00:26:54.243Z,9.27
2018-12-16T00:29:24.579Z,10.50
2018-12-16T00:31:54.639Z,10.67
2018-12-16T00:34:24.733Z,10.00
2018-12-16T00:36:54.740Z,10.70
2018-12-16T00:39:25.638Z,9.20
2018-12-16T00:41:55.613Z,10.20
2018-12-16T00:44:25.704Z,10.20
2018-12-16T00:46:55.800Z,10.90
2018-12-16T00:49:26.664Z,10.03
2018-12-16T00:51:56.722Z,9.93
2018-12-16T00:54:26.738Z,9.40
2018-12-16T00:56:57.021Z,11.20
2018-12-16T00:59:27.049Z,10.87
2018-12-16T01:01:58.961Z,10.90
2018-12-16T01:04:29.021Z,10.13
2018-12-16T01:06:59.336Z,10.70
2018-12-16T01:09:29.310Z,10.70
2018-12-16T01:11:59.471Z,10.67
2018-12-16T01:14:29.528Z,10.00
2018-12-16T01:16:59.466Z,11.20
2018-12-16T01:19:29.418Z,11.07
2018-12-16T01:21:59.597Z,9.70
2018-12-16T01:24:29.544Z,11.60
2018-12-16T01:26:59.637Z,10.63
2018-12-16T01:29:29.863Z,10.97
2018-12-16T01:31:59.740Z,10.97
2018-12-16T01:34:30.434Z,11.23
2018-12-16T01:37:00.636Z,9.80
2018-12-16T01:39:31.328Z,11.10
2018-12-16T01:42:02.275Z,10.70
2018-12-16T01:44:32.205Z,11.10
2018-12-16T01:47:02.738Z,12.50
2018-12-16T01:49:32.660Z,13.77
2018-12-16T01:52:02.956Z,14.03
2018-12-16T01:54:33.080Z,13.60
2018-12-16T01:57:03.622Z,12.43
2018-12-16T01:59:33.533Z,14.97
2018-12-16T02:02:04.020Z,14.23
2018-12-16T02:04:34.092Z,14.50
2018-12-16T02:07:04.914Z,14.50
2018-12-16T02:09:34.941Z,13.33
2018-12-16T02:12:05.133Z,14.93
2018-12-16T02:14:35.181Z,13.70
2018-12-16T02:17:05.451Z,13.93
2018-12-16T02:19:35.653Z,12.70
2018-12-16T02:22:05.785Z,13.57
2018-12-16T02:24:35.965Z,13.33
2018-12-16T02:27:06.085Z,12.87
2018-12-16T02:29:36.094Z,13.70
2018-12-16T02:32:06.133Z,11.67
2018-12-16T02:34:36.222Z,12.10
2018-12-16T02:37:06.471Z,12.53
2018-12-16T02:39:36.687Z,12.43
2018-12-16T02:42:06.823Z,12.13
2018-12-16T02:44:36.965Z,12.77
2018-12-16T02:47:07.075Z,11.93
2018-12-16T02:49:37.220Z,10.83
2018-12-16T02:52:07.270Z,10.53
2018-12-16T02:54:37.380Z,11.43
2018-12-16T02:57:07.994Z,9.27
2018-12-16T02:59:38.318Z,10.90
2018-12-16T03:02:09.142Z,10.30
2018-12-16T03:04:39.339Z,11.07
2018-12-16T03:07:09.749Z,10.77
2018-12-16T03:09:40.042Z,12.13
2018-12-16T03:12:10.067Z,9.50
2018-12-16T03:14:40.202Z,9.53
2018-12-16T03:17:10.385Z,8.80
2018-12-16T03:19:40.485Z,8.77
2018-12-16T03:22:10.492Z,9.27
2018-12-16T03:24:40.934Z,10.00
2018-12-16T03:27:10.950Z,9.30
2018-12-16T03:29:41.214Z,10.67
2018-12-16T03:32:11.337Z,10.03
2018-12-16T03:34:41.345Z,9.73
2018-12-16T03:37:11.428Z,11.07
2018-12-16T03:39:41.761Z,11.47
2018-12-16T03:42:13.913Z,13.87
2018-12-16T03:44:44.453Z,14.90
2018-12-16T03:47:14.597Z,16.97
2018-12-16T03:49:44.594Z,17.30
2018-12-16T03:52:14.486Z,19.83
2018-12-16T03:54:44.497Z,20.37
2018-12-16T03:57:14.428Z,19.07
2018-12-16T03:59:45.201Z,16.90
2018-12-16T04:02:15.360Z,17.30
2018-12-16T04:04:45.431Z,12.43
2018-12-16T04:07:15.818Z,11.60
2018-12-16T04:09:45.962Z,11.23
2018-12-16T04:12:16.199Z,10.60
2018-12-16T04:14:46.333Z,9.90
2018-12-16T04:17:16.256Z,9.67
2018-12-16T04:19:46.378Z,10.77
2018-12-16T04:22:16.470Z,10.13
2018-12-16T04:24:46.347Z,10.73
2018-12-16T04:27:16.712Z,12.10
2018-12-16T04:29:46.762Z,11.00
2018-12-16T04:32:17.619Z,11.17
2018-12-16T04:34:47.605Z,11.30
2018-12-16T04:37:17.510Z,10.93
2018-12-16T04:39:47.502Z,9.23
2018-12-16T04:42:17.723Z,10.27
2018-12-16T04:44:47.662Z,9.77
2018-12-16T04:47:17.738Z,9.87
2018-12-16T04:49:47.731Z,11.97
2018-12-16T04:52:17.982Z,14.43
2018-12-16T04:54:48.184Z,14.03
2018-12-16T04:57:18.153Z,15.70
2018-12-16T04:59:48.278Z,17.53
2018-12-16T05:02:18.360Z,14.30
2018-12-16T05:04:48.430Z,16.23
2018-12-16T05:07:18.413Z,16.40
2018-12-16T05:09:48.486Z,17.93
2018-12-16T05:12:18.813Z,17.57
2018-12-16T05:14:49.001Z,17.20
2018-12-16T05:17:18.929Z,16.70
2018-12-16T05:19:48.924Z,14.83
2018-12-16T05:22:19.095Z,13.57
2018-12-16T05:24:49.090Z,16.33
2018-12-16T05:27:19.120Z,14.77
2018-12-16T05:29:49.129Z,14.00
2018-12-16T05:32:19.181Z,12.50
2018-12-16T05:34:49.281Z,12.20
2018-12-16T05:37:19.276Z,12.80
2018-12-16T05:39:49.664Z,12.43
2018-12-16T05:42:19.707Z,12.00
2018-12-16T05:44:49.872Z,10.67
2018-12-16T05:47:20.369Z,9.27
2018-12-16T05:49:51.094Z,8.30
2018-12-16T05:52:21.173Z,8.80
2018-12-16T05:54:51.233Z,8.87
2018-12-16T05:57:21.374Z,11.47
2018-12-16T05:59:51.767Z,10.90
2018-12-16T06:02:21.715Z,10.50
2018-12-16T06:04:51.869Z,10.83
2018-12-16T06:07:22.017Z,11.70
2018-12-16T06:09:52.099Z,12.47
2018-12-16T06:12:22.238Z,13.80
2018-12-16T06:14:52.237Z,14.40
2018-12-16T06:17:22.289Z,13.60
2018-12-16T06:19:52.376Z,15.40
2018-12-16T06:22:22.701Z,12.27
2018-12-16T06:24:52.895Z,17.60
2018-12-16T06:27:23.098Z,19.90
2018-12-16T06:29:53.243Z,17.63
2018-12-16T06:32:23.267Z,16.77
2018-12-16T06:34:53.149Z,18.57
2018-12-16T06:37:23.154Z,17.90
2018-12-16T06:39:53.598Z,16.27
2018-12-16T06:42:23.894Z,24.73
2018-12-16T06:44:54.140Z,20.87
2018-12-16T06:47:24.179Z,17.50
2018-12-16T06:49:54.342Z,17.03
2018-12-16T06:52:24.480Z,18.77
2018-12-16T06:54:54.470Z,22.83
2018-12-16T06:57:24.903Z,24.97
2018-12-16T06:59:55.072Z,22.53
2018-12-16T07:02:26.249Z,24.00
2018-12-16T07:04:56.304Z,25.13
2018-12-16T07:07:26.355Z,24.40
2018-12-16T07:09:56.428Z,25.50
2018-12-16T07:12:27.176Z,25.90
2018-12-16T07:14:57.489Z,28.23
2018-12-16T07:17:27.622Z,25.10
2018-12-16T07:19:57.724Z,23.47
2018-12-16T07:22:27.978Z,21.10
2018-12-16T07:24:58.029Z,22.43
2018-12-16T07:27:28.321Z,22.40
2018-12-16T07:29:58.529Z,23.60
2018-12-16T07:32:28.606Z,23.93
2018-12-16T07:34:58.963Z,20.83
2018-12-16T07:37:29.287Z,18.90
2018-12-16T07:39:59.565Z,15.93
2018-12-16T07:42:30.453Z,15.20
2018-12-16T07:45:00.632Z,14.67
2018-12-16T07:47:33.250Z,15.40
2018-12-16T07:50:04.353Z,14.10
2018-12-16T07:52:36.490Z,12.83
2018-12-16T07:55:07.336Z,11.03
2018-12-16T07:57:37.689Z,12.50
2018-12-16T08:00:09.798Z,9.33
2018-12-16T08:02:39.842Z,11.37
2018-12-16T08:05:10.027Z,19.50
2018-12-16T08:07:40.252Z,16.10
2018-12-16T08:10:10.304Z,22.00
2018-12-16T08:12:40.452Z,19.60
2018-12-16T08:15:11.101Z,12.00
2018-12-16T08:17:41.273Z,11.87
2018-12-16T08:20:11.431Z,10.97
2018-12-16T08:22:41.786Z,10.47
2018-12-16T08:25:12.023Z,9.10
2018-12-16T08:27:43.056Z,8.63
2018-12-16T08:30:13.175Z,9.47
2018-12-16T08:32:43.291Z,9.70
2018-12-16T08:35:13.400Z,10.20
2018-12-16T08:37:43.681Z,11.57
2018-12-16T08:40:14.893Z,10.33
2018-12-16T08:42:44.822Z,8.00
2018-12-16T08:45:14.794Z,9.00
2018-12-16T08:47:44.953Z,9.30
2018-12-16T08:50:16.559Z,8.90
2018-12-16T08:52:46.665Z,9.70
2018-12-16T08:55:16.585Z,8.63
2018-12-16T08:57:46.679Z,10.37
2018-12-16T09:00:16.634Z,10.57
2018-12-16T09:02:47.319Z,9.93
2018-12-16T09:05:17.563Z,9.70
2018-12-16T09:07:48.086Z,8.80
2018-12-16T09:10:18.424Z,8.87
2018-12-16T09:12:48.609Z,9.87
2018-12-16T09:15:18.878Z,13.47
2018-12-16T09:17:49.131Z,11.00
2018-12-16T09:20:19.463Z,13.00
2018-12-16T09:22:49.395Z,11.50
2018-12-16T09:25:19.575Z,12.47
2018-12-16T09:27:49.781Z,14.10
2018-12-16T09:30:19.965Z,13.13
2018-12-16T09:32:50.062Z,10.27
2018-12-16T09:35:20.281Z,10.77
2018-12-16T09:37:50.701Z,9.30
2018-12-16T09:40:21.102Z,7.90
2018-12-16T09:42:51.243Z,8.40
2018-12-16T09:45:21.130Z,9.20
2018-12-16T09:47:51.426Z,8.13
2018-12-16T09:50:21.743Z,9.20
2018-12-16T09:52:52.181Z,8.97
2018-12-16T09:55:22.457Z,8.43
2018-12-16T09:57:53.040Z,9.00
2018-12-16T10:00:23.517Z,8.87
2018-12-16T10:02:53.675Z,8.17
2018-12-16T10:05:23.808Z,7.70
2018-12-16T10:07:53.809Z,9.00
2018-12-16T10:10:23.948Z,8.03
2018-12-16T10:12:53.853Z,8.40
2018-12-16T10:15:24.175Z,9.40
2018-12-16T10:17:54.392Z,9.13
2018-12-16T10:20:24.358Z,8.40
2018-12-16T10:22:54.418Z,7.90
2018-12-16T10:25:24.351Z,7.47
2018-12-16T10:27:54.562Z,8.60
2018-12-16T10:30:24.654Z,10.80
2018-12-16T10:32:54.884Z,9.60
2018-12-16T10:35:24.893Z,7.90
2018-12-16T10:37:54.937Z,8.83
2018-12-16T10:40:25.206Z,11.07
2018-12-16T10:42:55.150Z,10.83
2018-12-16T10:45:25.185Z,10.03
2018-12-16T10:47:55.295Z,12.20
2018-12-16T10:50:25.620Z,11.10
2018-12-16T10:52:56.022Z,10.40
2018-12-16T10:55:26.200Z,11.33
2018-12-16T10:57:56.463Z,10.30
2018-12-16T11:00:31.670Z,10.20
2018-12-16T11:03:01.685Z,8.50
2018-12-16T11:05:32.198Z,11.00
2018-12-16T11:08:03.297Z,8.17
2018-12-16T11:10:34.269Z,9.10
2018-12-16T11:13:05.367Z,7.10
2018-12-16T11:15:35.469Z,7.37
2018-12-16T11:18:05.529Z,8.97
2018-12-16T11:20:35.808Z,8.00
2018-12-16T11:23:05.684Z,7.33
2018-12-16T11:25:37.248Z,7.53
2018-12-16T11:28:07.288Z,8.37
2018-12-16T11:30:37.292Z,8.13
2018-12-16T11:33:07.202Z,8.83
2018-12-16T11:35:37.288Z,7.50
2018-12-16T11:38:07.283Z,9.27
2018-12-16T11:40:37.501Z,10.27
2018-12-16T11:43:07.994Z,9.73
2018-12-16T11:45:38.058Z,11.03
2018-12-16T11:48:08.120Z,10.30
2018-12-16T11:50:38.134Z,13.60
2018-12-16T11:53:08.209Z,15.63
2018-12-16T11:55:39.121Z,17.93
2018-12-16T11:58:09.241Z,14.67
2018-12-16T12:00:39.384Z,14.30
2018-12-16T12:03:09.294Z,15.10
2018-12-16T12:05:42.709Z,21.00
2018-12-16T12:08:13.075Z,18.60
2018-12-16T12:10:43.560Z,14.87
2018-12-16T12:13:13.531Z,17.33
2018-12-16T12:15:43.668Z,16.97
2018-12-16T12:18:13.620Z,15.40
2018-12-16T12:20:43.706Z,13.40
2018-12-16T12:23:13.700Z,8.57
2018-12-16T12:25:43.707Z,9.20
2018-12-16T12:28:14.179Z,8.60
2018-12-16T12:30:45.803Z,6.83
2018-12-16T12:33:15.959Z,6.10
2018-12-16T12:35:46.187Z,6.50
2018-12-16T12:38:16.322Z,6.97
2018-12-16T12:40:46.861Z,6.23
2018-12-16T12:43:17.758Z,9.90
2018-12-16T12:45:47.984Z,11.80
2018-12-16T12:48:17.966Z,12.60
2018-12-16T12:50:48.079Z,12.27
2018-12-16T12:53:18.403Z,13.70
2018-12-16T12:55:48.507Z,14.60
2018-12-16T12:58:18.676Z,15.80
2018-12-16T13:00:48.673Z,11.97
2018-12-16T13:03:19.913Z,12.70
2018-12-16T13:05:50.057Z,14.70
2018-12-16T13:08:21.815Z,14.60
2018-12-16T13:10:52.119Z,20.60
2018-12-16T13:13:22.388Z,17.73
2018-12-16T13:15:52.362Z,22.37
2018-12-16T13:18:22.545Z,51.00
2018-12-16T13:20:52.782Z,12.77
2018-12-16T13:23:22.949Z,13.03
2018-12-16T13:26:02.848Z,13.40
2018-12-16T13:28:33.349Z,13.00
2018-12-16T13:31:04.199Z,14.30
2018-12-16T13:33:34.344Z,11.57
2018-12-16T13:36:05.842Z,9.90
2018-12-16T13:38:35.907Z,13.13
2018-12-16T13:41:06.118Z,14.33
2018-12-16T13:43:36.347Z,14.30
2018-12-16T13:46:06.455Z,13.03
2018-12-16T13:48:36.418Z,12.93
2018-12-16T13:51:06.509Z,13.70
2018-12-16T13:53:36.671Z,12.77
2018-12-16T13:56:06.808Z,12.20
2018-12-16T13:58:37.006Z,13.00
2018-12-16T14:01:07.468Z,12.50
2018-12-16T14:03:37.382Z,12.67
2018-12-16T14:06:07.646Z,13.17
2018-12-16T14:08:38.281Z,15.03
2018-12-16T14:11:08.274Z,15.53
2018-12-16T14:13:38.439Z,14.63
2018-12-16T14:16:08.789Z,14.30
2018-12-16T14:18:39.081Z,13.97
2018-12-16T14:21:09.303Z,17.50
2018-12-16T14:23:39.259Z,17.00
2018-12-16T14:26:09.229Z,16.83
2018-12-16T14:28:39.530Z,18.23
2018-12-16T14:31:09.755Z,20.40
2018-12-16T14:33:39.746Z,18.17
2018-12-16T14:36:09.957Z,17.20
2018-12-16T14:38:40.592Z,16.70
2018-12-16T14:41:11.086Z,15.63
2018-12-16T14:43:41.004Z,17.20
2018-12-16T14:46:11.117Z,17.10
2018-12-16T14:48:41.868Z,18.93
2018-12-16T14:51:12.136Z,17.77
2018-12-16T14:53:42.304Z,18.53
2018-12-16T14:56:12.214Z,17.63
2018-12-16T14:58:42.281Z,16.10
2018-12-16T15:01:12.308Z,18.90
2018-12-16T15:03:42.480Z,18.77
2018-12-16T15:06:12.515Z,22.50
2018-12-16T15:08:42.855Z,22.27
2018-12-16T15:11:13.389Z,25.17
2018-12-16T15:13:44.494Z,27.13
2018-12-16T15:16:14.592Z,22.90
2018-12-16T15:18:44.429Z,20.63
2018-12-16T15:21:14.643Z,17.23
2018-12-16T15:23:45.289Z,17.33
2018-12-16T15:26:15.606Z,15.93
2018-12-16T15:28:45.749Z,17.07
2018-12-16T15:31:15.956Z,18.17
2018-12-16T15:33:46.053Z,17.93
2018-12-16T15:36:16.301Z,18.10
2018-12-16T15:38:46.373Z,15.07
2018-12-16T15:41:16.771Z,14.70
2018-12-16T15:43:47.009Z,18.27
2018-12-16T15:46:17.098Z,18.73
2018-12-16T15:48:47.557Z,18.27
2018-12-16T15:51:17.853Z,18.93
2018-12-16T15:53:48.285Z,19.43
2018-12-16T15:56:18.391Z,21.27
2018-12-16T15:58:48.578Z,23.23
2018-12-16T16:01:18.692Z,24.83
2018-12-16T16:03:48.639Z,22.60
2018-12-16T16:06:18.627Z,25.70
2018-12-16T16:08:48.769Z,19.73
2018-12-16T16:11:18.998Z,21.70
2018-12-16T16:13:50.973Z,18.20
2018-12-16T16:16:21.120Z,18.00
2018-12-16T16:18:51.985Z,17.27
2018-12-16T16:21:23.536Z,18.87
2018-12-16T16:23:53.736Z,23.70
2018-12-16T16:26:24.370Z,22.23
2018-12-16T16:28:54.572Z,20.50
2018-12-16T16:31:24.750Z,34.43
2018-12-16T16:33:54.947Z,42.77
2018-12-16T16:36:25.162Z,22.53
2018-12-16T16:38:55.397Z,19.70
2018-12-16T16:41:25.632Z,20.67
2018-12-16T16:43:55.866Z,28.63
2018-12-16T16:46:26.071Z,26.17
2018-12-16T16:48:56.200Z,22.43
2018-12-16T16:51:26.488Z,22.77
2018-12-16T16:53:56.525Z,21.53
2018-12-16T16:56:26.749Z,43.53
2018-12-16T16:58:59.106Z,29.20
2018-12-16T17:01:29.366Z,46.83
2018-12-16T17:03:59.677Z,27.00
2018-12-16T17:06:29.811Z,26.90
2018-12-16T17:08:59.986Z,22.90
2018-12-16T17:11:33.737Z,26.00
2018-12-16T17:14:04.090Z,26.93
2018-12-16T17:16:34.286Z,25.23
2018-12-16T17:19:05.628Z,29.63
2018-12-16T17:21:36.562Z,50.87
2018-12-16T17:24:06.671Z,61.10
2018-12-16T17:26:37.021Z,59.17
2018-12-16T17:29:07.049Z,43.37
2018-12-16T17:31:37.138Z,45.93
2018-12-16T17:34:07.139Z,42.07
2018-12-16T17:36:37.383Z,36.57
2018-12-16T17:39:09.258Z,28.73
2018-12-16T17:41:42.149Z,29.33
2018-12-16T17:44:12.235Z,31.00
2018-12-16T17:46:43.036Z,39.57
2018-12-16T17:49:15.558Z,36.00
2018-12-16T17:51:45.921Z,28.43
2018-12-16T17:54:16.213Z,27.20
2018-12-16T17:56:47.782Z,43.20
2018-12-16T17:59:18.273Z,29.40
2018-12-16T18:01:48.560Z,34.47
2018-12-16T18:04:18.818Z,36.43
2018-12-16T18:06:48.964Z,33.90
2018-12-16T18:09:19.818Z,42.07
2018-12-16T18:11:50.159Z,46.33
2018-12-16T18:14:20.557Z,33.47
2018-12-16T18:16:50.655Z,21.30
2018-12-16T18:19:20.910Z,22.37
2018-12-16T18:21:52.092Z,19.97
2018-12-16T18:24:22.278Z,20.33
2018-12-16T18:26:52.246Z,14.57
2018-12-16T18:29:23.510Z,19.00
2018-12-16T18:31:54.430Z,15.90
2018-12-16T18:34:24.556Z,16.70
2018-12-16T18:36:54.837Z,19.30
2018-12-16T18:39:25.079Z,22.20
2018-12-16T18:41:55.117Z,20.30
2018-12-16T18:44:25.251Z,23.40
2018-12-16T18:46:55.164Z,22.50
2018-12-16T18:49:25.787Z,28.10
2018-12-16T18:51:55.923Z,22.50
2018-12-16T18:54:26.107Z,24.67
2018-12-16T18:56:56.201Z,21.63
2018-12-16T18:59:26.399Z,22.23
2018-12-16T19:01:56.651Z,22.63
2018-12-16T19:04:26.752Z,25.20
2018-12-16T19:06:57.051Z,23.50
2018-12-16T19:09:27.509Z,26.00
2018-12-16T19:11:57.623Z,25.60
2018-12-16T19:14:27.960Z,26.93
2018-12-16T19:16:58.159Z,24.70
2018-12-16T19:19:28.413Z,24.10
2018-12-16T19:21:58.419Z,24.87
2018-12-16T19:24:28.474Z,23.97
2018-12-16T19:26:58.878Z,20.67
2018-12-16T19:29:29.128Z,21.70
2018-12-16T19:32:00.017Z,19.70
2018-12-16T19:34:30.102Z,20.00
2018-12-16T19:37:00.129Z,17.00
2018-12-16T19:39:30.942Z,17.27
2018-12-16T19:42:02.230Z,18.67
2018-12-16T19:44:32.611Z,15.93
2018-12-16T19:47:04.193Z,19.40
2018-12-16T19:49:34.586Z,17.87
2018-12-16T19:52:05.565Z,19.00
2018-12-16T19:54:36.522Z,19.03
2018-12-16T19:57:07.604Z,20.47
2018-12-16T19:59:38.010Z,18.50
2018-12-16T20:02:08.307Z,19.10
2018-12-16T20:04:43.768Z,20.87
2018-12-16T20:07:13.971Z,20.23
2018-12-16T20:09:43.940Z,17.17
2018-12-16T20:12:14.260Z,23.40
2018-12-16T20:14:44.003Z,22.77
2018-12-16T20:17:14.242Z,20.00
2018-12-16T20:19:44.203Z,18.83
2018-12-16T20:22:14.437Z,23.07
2018-12-16T20:24:44.387Z,22.33
2018-12-16T20:27:14.591Z,19.53
2018-12-16T20:29:44.535Z,19.73
2018-12-16T20:32:14.671Z,19.40
2018-12-16T20:34:44.968Z,23.53
2018-12-16T20:37:15.335Z,26.00
2018-12-16T20:39:45.317Z,23.60
2018-12-16T20:42:15.790Z,23.10
2018-12-16T20:44:45.961Z,21.20
2018-12-16T20:47:16.849Z,21.07
2018-12-16T20:49:47.058Z,19.13
2018-12-16T20:52:17.244Z,17.37
2018-12-16T20:54:47.321Z,16.90
2018-12-16T20:57:18.887Z,16.73
2018-12-16T20:59:50.823Z,22.43
2018-12-16T21:02:21.308Z,25.83
2018-12-16T21:04:51.615Z,31.40
2018-12-16T21:07:22.005Z,31.97
2018-12-16T21:09:52.500Z,35.33
2018-12-16T21:12:28.249Z,24.53
2018-12-16T21:17:11.487Z,22.67
2018-12-16T21:19:41.783Z,27.80
2018-12-16T21:22:13.305Z,33.27
2018-12-16T21:24:44.058Z,42.03
2018-12-16T21:27:14.446Z,42.10
2018-12-16T21:29:44.677Z,45.00
2018-12-16T21:32:15.053Z,41.63
2018-12-16T21:34:44.988Z,32.40
2018-12-16T21:37:15.167Z,29.93
2018-12-16T21:39:45.143Z,23.90
2018-12-16T21:42:15.153Z,26.17
2018-12-16T21:44:45.211Z,26.73
2018-12-16T21:47:15.444Z,21.67
2018-12-16T21:49:45.735Z,19.40
2018-12-16T21:52:16.757Z,19.50
2018-12-16T21:54:46.820Z,19.17
2018-12-16T21:57:16.932Z,19.00
2018-12-16T21:59:47.562Z,19.50
2018-12-16T22:02:17.629Z,19.90
2018-12-16T22:04:47.683Z,20.50
2018-12-16T22:07:17.777Z,20.63
2018-12-16T22:09:47.680Z,18.93
2018-12-16T22:12:17.602Z,20.40
2018-12-16T22:14:47.641Z,20.57
2018-12-16T22:17:18.043Z,20.10
2018-12-16T22:19:48.203Z,22.23
2018-12-16T22:22:18.153Z,23.63
2018-12-16T22:24:48.125Z,22.73
2018-12-16T22:27:18.014Z,20.87
2018-12-16T22:29:47.902Z,15.20
2018-12-16T22:32:18.168Z,13.63
2018-12-16T22:34:48.450Z,14.73
2018-12-16T22:37:19.158Z,15.10
2018-12-16T22:39:49.218Z,14.30
2018-12-16T22:42:19.494Z,16.00
2018-12-16T22:44:49.900Z,15.93
2018-12-16T22:47:20.017Z,14.37
2018-12-16T22:49:50.156Z,15.33
2018-12-16T22:52:20.791Z,14.97
2018-12-16T22:54:50.793Z,14.57
2018-12-16T22:57:21.107Z,13.43
2018-12-16T22:59:51.256Z,16.30
2018-12-16T23:02:21.585Z,16.43
2018-12-16T23:04:51.641Z,15.40
2018-12-16T23:07:23.191Z,17.53
2018-12-16T23:09:53.188Z,15.70
2018-12-16T23:12:23.482Z,18.27
2018-12-16T23:14:54.341Z,16.43
2018-12-16T23:17:24.558Z,15.93
2018-12-16T23:19:59.445Z,13.87
2018-12-16T23:22:29.387Z,14.23
2018-12-16T23:24:59.849Z,24.33
2018-12-16T23:27:30.143Z,23.07
2018-12-16T23:30:00.298Z,21.30
2018-12-16T23:32:33.403Z,16.33
2018-12-16T23:35:04.521Z,15.63
2018-12-16T23:37:34.694Z,15.90
2018-12-16T23:40:05.038Z,15.70
2018-12-16T23:42:35.167Z,16.87
2018-12-16T23:45:06.168Z,18.10
2018-12-16T23:47:36.344Z,15.40
2018-12-16T23:50:06.993Z,17.97
2018-12-16T23:52:37.081Z,18.97
2018-12-16T23:55:07.354Z,18.57
2018-12-16T23:57:37.566Z,16.40
